sensor_id;sensor_type;location;lat;lon;timestamp;P1;durP1;ratioP1;P2;durP2;ratioP2
31464;SDS011;18089;47.428;15.006;2023-01-15T00:01:27;44.17;;;30.43;;
31464;SDS011;18089;47.428;15.006;2023-01-15T00:04:00;40.27;;;29.10;;
31464;SDS011;18089;47.428;15.006;2023-01-15T00:06:34;37.90;;;27.27;;
31464;SDS011;18089;47.428;15.006;2023-01-15T00:09:11;41.97;;;27.30;;
31464;SDS011;18089;47.428;15.006;2023-01-15T00:11:44;41.93;;;28.57;;
31464;SDS011;18089;47.428;15.006;2023-01-15T00:14:16;39.60;;;27.17;;
31464;SDS011;18089;47.428;15.006;2023-01-15T00:16:49;42.23;;;28.13;;
31464;SDS011;18089;47.428;15.006;2023-01-15T00:19:22;54.43;;;34.93;;
31464;SDS011;18089;47.428;15.006;2023-01-15T00:21:54;55.20;;;34.57;;
31464;SDS011;18089;47.428;15.006;2023-01-15T00:24:28;51.50;;;33.43;;
31464;SDS011;18089;47.428;15.006;2023-01-15T00:27:18;55.43;;;33.80;;
31464;SDS011;18089;47.428;15.006;2023-01-15T00:30:08;52.20;;;34.60;;
31464;SDS011;18089;47.428;15.006;2023-01-15T00:32:41;56.27;;;34.33;;
31464;SDS011;18089;47.428;15.006;2023-01-15T00:35:14;54.00;;;34.60;;
31464;SDS011;18089;47.428;15.006;2023-01-15T00:37:47;53.50;;;34.57;;
31464;SDS011;18089;47.428;15.006;2023-01-15T00:40:21;52.77;;;34.83;;
31464;SDS011;18089;47.428;15.006;2023-01-15T00:42:53;49.93;;;33.43;;
31464;SDS011;18089;47.428;15.006;2023-01-15T00:45:25;50.03;;;32.77;;
31464;SDS011;18089;47.428;15.006;2023-01-15T00:47:57;47.90;;;31.43;;
31464;SDS011;18089;47.428;15.006;2023-01-15T00:50:29;51.57;;;31.77;;
31464;SDS011;18089;47.428;15.006;2023-01-15T00:53:01;47.40;;;31.80;;
31464;SDS011;18089;47.428;15.006;2023-01-15T00:55:34;47.60;;;31.93;;
31464;SDS011;18089;47.428;15.006;2023-01-15T00:58:06;45.77;;;32.57;;
31464;SDS011;18089;47.428;15.006;2023-01-15T01:00:38;48.40;;;31.83;;
31464;SDS011;18089;47.428;15.006;2023-01-15T01:03:10;47.43;;;30.77;;
31464;SDS011;18089;47.428;15.006;2023-01-15T01:05:42;46.90;;;31.67;;
31464;SDS011;18089;47.428;15.006;2023-01-15T01:08:14;44.03;;;31.30;;
31464;SDS011;18089;47.428;15.006;2023-01-15T01:10:48;43.77;;;29.37;;
31464;SDS011;18089;47.428;15.006;2023-01-15T01:13:20;46.63;;;29.93;;
31464;SDS011;18089;47.428;15.006;2023-01-15T01:15:52;44.83;;;30.00;;
31464;SDS011;18089;47.428;15.006;2023-01-15T01:18:24;49.07;;;31.67;;
31464;SDS011;18089;47.428;15.006;2023-01-15T01:20:56;52.77;;;33.27;;
31464;SDS011;18089;47.428;15.006;2023-01-15T01:23:28;47.70;;;32.70;;
31464;SDS011;18089;47.428;15.006;2023-01-15T01:26:03;47.10;;;31.70;;
31464;SDS011;18089;47.428;15.006;2023-01-15T01:28:35;46.40;;;32.43;;
31464;SDS011;18089;47.428;15.006;2023-01-15T01:31:07;48.77;;;32.73;;
31464;SDS011;18089;47.428;15.006;2023-01-15T01:33:39;57.03;;;35.60;;
31464;SDS011;18089;47.428;15.006;2023-01-15T01:36:11;98.37;;;50.03;;
31464;SDS011;18089;47.428;15.006;2023-01-15T01:38:46;50.33;;;32.70;;
31464;SDS011;18089;47.428;15.006;2023-01-15T01:41:21;49.97;;;30.77;;
31464;SDS011;18089;47.428;15.006;2023-01-15T01:43:55;54.83;;;33.23;;
31464;SDS011;18089;47.428;15.006;2023-01-15T01:46:28;49.17;;;31.87;;
31464;SDS011;18089;47.428;15.006;2023-01-15T01:49:01;49.23;;;30.63;;
31464;SDS011;18089;47.428;15.006;2023-01-15T01:51:36;44.13;;;29.47;;
31464;SDS011;18089;47.428;15.006;2023-01-15T01:54:10;44.27;;;28.70;;
31464;SDS011;18089;47.428;15.006;2023-01-15T01:56:45;42.93;;;29.27;;
31464;SDS011;18089;47.428;15.006;2023-01-15T01:59:19;40.70;;;29.00;;
31464;SDS011;18089;47.428;15.006;2023-01-15T02:01:52;37.20;;;27.40;;
31464;SDS011;18089;47.428;15.006;2023-01-15T02:04:25;40.77;;;27.77;;
31464;SDS011;18089;47.428;15.006;2023-01-15T02:06:58;37.50;;;27.37;;
31464;SDS011;18089;47.428;15.006;2023-01-15T02:09:31;40.57;;;27.90;;
31464;SDS011;18089;47.428;15.006;2023-01-15T02:12:07;40.67;;;28.13;;
31464;SDS011;18089;47.428;15.006;2023-01-15T02:14:43;38.73;;;27.83;;
31464;SDS011;18089;47.428;15.006;2023-01-15T02:17:21;40.40;;;27.40;;
31464;SDS011;18089;47.428;15.006;2023-01-15T02:20:02;32.40;;;26.10;;
31464;SDS011;18089;47.428;15.006;2023-01-15T02:22:44;34.20;;;26.47;;
31464;SDS011;18089;47.428;15.006;2023-01-15T02:25:51;40.57;;;26.73;;
31464;SDS011;18089;47.428;15.006;2023-01-15T02:28:31;43.67;;;25.63;;
31464;SDS011;18089;47.428;15.006;2023-01-15T02:31:07;33.43;;;24.73;;
31464;SDS011;18089;47.428;15.006;2023-01-15T02:33:42;33.83;;;24.93;;
31464;SDS011;18089;47.428;15.006;2023-01-15T02:36:17;36.17;;;25.17;;
31464;SDS011;18089;47.428;15.006;2023-01-15T02:38:51;35.57;;;25.63;;
31464;SDS011;18089;47.428;15.006;2023-01-15T02:41:25;38.00;;;26.23;;
31464;SDS011;18089;47.428;15.006;2023-01-15T02:44:02;33.50;;;26.00;;
31464;SDS011;18089;47.428;15.006;2023-01-15T02:46:35;34.33;;;24.50;;
31464;SDS011;18089;47.428;15.006;2023-01-15T02:49:09;33.50;;;24.23;;
31464;SDS011;18089;47.428;15.006;2023-01-15T02:51:45;33.60;;;24.07;;
31464;SDS011;18089;47.428;15.006;2023-01-15T02:54:19;35.50;;;24.50;;
31464;SDS011;18089;47.428;15.006;2023-01-15T02:56:52;37.83;;;24.77;;
31464;SDS011;18089;47.428;15.006;2023-01-15T02:59:27;35.27;;;25.17;;
31464;SDS011;18089;47.428;15.006;2023-01-15T03:02:02;38.07;;;25.50;;
31464;SDS011;18089;47.428;15.006;2023-01-15T03:04:36;38.77;;;26.07;;
31464;SDS011;18089;47.428;15.006;2023-01-15T03:07:13;41.10;;;27.40;;
31464;SDS011;18089;47.428;15.006;2023-01-15T03:09:49;35.37;;;26.27;;
31464;SDS011;18089;47.428;15.006;2023-01-15T03:12:23;38.13;;;26.37;;
31464;SDS011;18089;47.428;15.006;2023-01-15T03:15:01;39.47;;;26.63;;
31464;SDS011;18089;47.428;15.006;2023-01-15T03:17:38;38.73;;;25.13;;
31464;SDS011;18089;47.428;15.006;2023-01-15T03:20:17;36.93;;;24.87;;
31464;SDS011;18089;47.428;15.006;2023-01-15T03:22:53;34.70;;;25.70;;
31464;SDS011;18089;47.428;15.006;2023-01-15T03:25:28;41.63;;;25.67;;
31464;SDS011;18089;47.428;15.006;2023-01-15T03:28:05;39.77;;;25.10;;
31464;SDS011;18089;47.428;15.006;2023-01-15T03:30:39;37.60;;;26.13;;
31464;SDS011;18089;47.428;15.006;2023-01-15T03:33:11;35.77;;;25.33;;
31464;SDS011;18089;47.428;15.006;2023-01-15T03:35:45;35.27;;;25.07;;
31464;SDS011;18089;47.428;15.006;2023-01-15T03:38:20;37.50;;;25.23;;
31464;SDS011;18089;47.428;15.006;2023-01-15T03:40:57;36.60;;;26.40;;
31464;SDS011;18089;47.428;15.006;2023-01-15T03:43:48;32.23;;;25.17;;
31464;SDS011;18089;47.428;15.006;2023-01-15T03:46:33;34.87;;;25.57;;
31464;SDS011;18089;47.428;15.006;2023-01-15T03:49:13;37.37;;;25.40;;
31464;SDS011;18089;47.428;15.006;2023-01-15T03:51:53;34.10;;;24.73;;
31464;SDS011;18089;47.428;15.006;2023-01-15T03:54:32;35.77;;;24.00;;
31464;SDS011;18089;47.428;15.006;2023-01-15T03:57:11;37.97;;;24.53;;
31464;SDS011;18089;47.428;15.006;2023-01-15T03:59:45;29.83;;;22.90;;
31464;SDS011;18089;47.428;15.006;2023-01-15T04:02:21;34.60;;;23.97;;
31464;SDS011;18089;47.428;15.006;2023-01-15T04:04:54;33.27;;;24.03;;
31464;SDS011;18089;47.428;15.006;2023-01-15T04:07:27;37.90;;;24.63;;
31464;SDS011;18089;47.428;15.006;2023-01-15T04:09:59;31.50;;;23.73;;
31464;SDS011;18089;47.428;15.006;2023-01-15T04:12:32;38.30;;;24.33;;
31464;SDS011;18089;47.428;15.006;2023-01-15T04:15:04;32.07;;;23.97;;
31464;SDS011;18089;47.428;15.006;2023-01-15T04:17:38;30.63;;;24.27;;
31464;SDS011;18089;47.428;15.006;2023-01-15T04:20:10;38.00;;;25.53;;
31464;SDS011;18089;47.428;15.006;2023-01-15T04:22:43;35.57;;;24.57;;
31464;SDS011;18089;47.428;15.006;2023-01-15T04:25:15;35.73;;;24.97;;
31464;SDS011;18089;47.428;15.006;2023-01-15T04:27:47;34.50;;;24.83;;
31464;SDS011;18089;47.428;15.006;2023-01-15T04:30:19;34.00;;;24.23;;
31464;SDS011;18089;47.428;15.006;2023-01-15T04:32:53;38.33;;;23.80;;
31464;SDS011;18089;47.428;15.006;2023-01-15T04:35:25;34.83;;;24.37;;
31464;SDS011;18089;47.428;15.006;2023-01-15T04:37:57;35.47;;;23.83;;
31464;SDS011;18089;47.428;15.006;2023-01-15T04:40:30;34.93;;;24.40;;
31464;SDS011;18089;47.428;15.006;2023-01-15T04:43:19;31.50;;;24.73;;
31464;SDS011;18089;47.428;15.006;2023-01-15T04:46:08;36.13;;;24.83;;
31464;SDS011;18089;47.428;15.006;2023-01-15T04:48:42;31.80;;;23.37;;
31464;SDS011;18089;47.428;15.006;2023-01-15T04:51:14;32.67;;;24.30;;
31464;SDS011;18089;47.428;15.006;2023-01-15T04:53:46;33.40;;;24.63;;
31464;SDS011;18089;47.428;15.006;2023-01-15T04:56:18;38.83;;;27.13;;
31464;SDS011;18089;47.428;15.006;2023-01-15T04:58:50;37.13;;;25.77;;
31464;SDS011;18089;47.428;15.006;2023-01-15T05:01:22;36.43;;;24.67;;
31464;SDS011;18089;47.428;15.006;2023-01-15T05:03:56;34.37;;;23.83;;
31464;SDS011;18089;47.428;15.006;2023-01-15T05:06:28;34.73;;;24.33;;
31464;SDS011;18089;47.428;15.006;2023-01-15T05:09:01;34.53;;;23.93;;
31464;SDS011;18089;47.428;15.006;2023-01-15T05:11:34;28.60;;;22.60;;
31464;SDS011;18089;47.428;15.006;2023-01-15T05:14:07;28.87;;;21.70;;
31464;SDS011;18089;47.428;15.006;2023-01-15T05:16:39;31.67;;;22.43;;
31464;SDS011;18089;47.428;15.006;2023-01-15T05:19:13;32.17;;;23.60;;
31464;SDS011;18089;47.428;15.006;2023-01-15T05:21:45;33.37;;;22.43;;
31464;SDS011;18089;47.428;15.006;2023-01-15T05:24:17;33.60;;;22.70;;
31464;SDS011;18089;47.428;15.006;2023-01-15T05:26:49;27.87;;;22.23;;
31464;SDS011;18089;47.428;15.006;2023-01-15T05:29:21;32.73;;;22.90;;
31464;SDS011;18089;47.428;15.006;2023-01-15T05:31:53;33.30;;;22.83;;
31464;SDS011;18089;47.428;15.006;2023-01-15T05:34:26;31.83;;;22.67;;
31464;SDS011;18089;47.428;15.006;2023-01-15T05:36:58;37.40;;;25.57;;
31464;SDS011;18089;47.428;15.006;2023-01-15T05:39:30;38.40;;;25.30;;
31464;SDS011;18089;47.428;15.006;2023-01-15T05:42:02;35.13;;;24.77;;
31464;SDS011;18089;47.428;15.006;2023-01-15T05:44:34;35.63;;;22.10;;
31464;SDS011;18089;47.428;15.006;2023-01-15T05:47:07;37.50;;;26.10;;
31464;SDS011;18089;47.428;15.006;2023-01-15T05:49:41;39.50;;;25.93;;
31464;SDS011;18089;47.428;15.006;2023-01-15T05:52:14;33.23;;;24.00;;
31464;SDS011;18089;47.428;15.006;2023-01-15T05:54:47;33.70;;;23.77;;
31464;SDS011;18089;47.428;15.006;2023-01-15T05:57:20;36.00;;;24.00;;
31464;SDS011;18089;47.428;15.006;2023-01-15T05:59:52;36.47;;;24.30;;
31464;SDS011;18089;47.428;15.006;2023-01-15T06:02:25;40.50;;;26.93;;
31464;SDS011;18089;47.428;15.006;2023-01-15T06:04:58;40.17;;;27.87;;
31464;SDS011;18089;47.428;15.006;2023-01-15T06:07:30;49.13;;;32.90;;
31464;SDS011;18089;47.428;15.006;2023-01-15T06:10:02;58.33;;;35.03;;
31464;SDS011;18089;47.428;15.006;2023-01-15T06:12:35;55.00;;;32.53;;
31464;SDS011;18089;47.428;15.006;2023-01-15T06:15:07;46.33;;;31.20;;
31464;SDS011;18089;47.428;15.006;2023-01-15T06:17:40;47.17;;;29.23;;
31464;SDS011;18089;47.428;15.006;2023-01-15T06:20:14;48.13;;;30.67;;
31464;SDS011;18089;47.428;15.006;2023-01-15T06:22:47;45.40;;;29.07;;
31464;SDS011;18089;47.428;15.006;2023-01-15T06:25:19;46.63;;;29.50;;
31464;SDS011;18089;47.428;15.006;2023-01-15T06:27:51;39.97;;;27.30;;
31464;SDS011;18089;47.428;15.006;2023-01-15T06:30:23;46.37;;;28.87;;
31464;SDS011;18089;47.428;15.006;2023-01-15T06:32:55;43.07;;;28.03;;
31464;SDS011;18089;47.428;15.006;2023-01-15T06:35:29;39.97;;;26.80;;
31464;SDS011;18089;47.428;15.006;2023-01-15T06:38:01;42.33;;;27.13;;
31464;SDS011;18089;47.428;15.006;2023-01-15T06:40:33;37.73;;;27.00;;
31464;SDS011;18089;47.428;15.006;2023-01-15T06:43:05;38.83;;;27.37;;
31464;SDS011;18089;47.428;15.006;2023-01-15T06:45:55;39.03;;;26.77;;
31464;SDS011;18089;47.428;15.006;2023-01-15T06:48:44;45.40;;;27.70;;
31464;SDS011;18089;47.428;15.006;2023-01-15T06:51:18;39.07;;;27.07;;
31464;SDS011;18089;47.428;15.006;2023-01-15T06:53:51;39.30;;;27.47;;
31464;SDS011;18089;47.428;15.006;2023-01-15T06:56:22;41.00;;;28.00;;
31464;SDS011;18089;47.428;15.006;2023-01-15T06:58:54;58.40;;;33.07;;
31464;SDS011;18089;47.428;15.006;2023-01-15T07:01:26;67.20;;;37.93;;
31464;SDS011;18089;47.428;15.006;2023-01-15T07:04:00;59.50;;;34.83;;
31464;SDS011;18089;47.428;15.006;2023-01-15T07:06:33;40.70;;;28.23;;
31464;SDS011;18089;47.428;15.006;2023-01-15T07:09:05;41.13;;;27.73;;
31464;SDS011;18089;47.428;15.006;2023-01-15T07:11:37;48.17;;;30.57;;
31464;SDS011;18089;47.428;15.006;2023-01-15T07:14:19;57.10;;;35.97;;
31464;SDS011;18089;47.428;15.006;2023-01-15T07:16:51;48.80;;;32.50;;
31464;SDS011;18089;47.428;15.006;2023-01-15T07:19:24;42.03;;;29.13;;
31464;SDS011;18089;47.428;15.006;2023-01-15T07:21:57;65.33;;;36.53;;
31464;SDS011;18089;47.428;15.006;2023-01-15T07:24:29;71.80;;;43.27;;
31464;SDS011;18089;47.428;15.006;2023-01-15T07:27:02;64.50;;;39.30;;
31464;SDS011;18089;47.428;15.006;2023-01-15T07:29:34;60.93;;;35.83;;
31464;SDS011;18089;47.428;15.006;2023-01-15T07:32:06;52.37;;;32.63;;
31464;SDS011;18089;47.428;15.006;2023-01-15T07:34:38;48.27;;;31.83;;
31464;SDS011;18089;47.428;15.006;2023-01-15T07:37:12;44.67;;;28.77;;
31464;SDS011;18089;47.428;15.006;2023-01-15T07:39:44;44.80;;;29.40;;
31464;SDS011;18089;47.428;15.006;2023-01-15T07:42:16;48.00;;;29.23;;
31464;SDS011;18089;47.428;15.006;2023-01-15T07:45:16;40.70;;;28.17;;
31464;SDS011;18089;47.428;15.006;2023-01-15T07:48:07;46.13;;;28.77;;
31464;SDS011;18089;47.428;15.006;2023-01-15T07:50:57;39.40;;;28.23;;
31464;SDS011;18089;47.428;15.006;2023-01-15T07:53:31;44.87;;;29.80;;
31464;SDS011;18089;47.428;15.006;2023-01-15T07:56:03;53.33;;;32.30;;
31464;SDS011;18089;47.428;15.006;2023-01-15T07:58:35;47.10;;;30.97;;
31464;SDS011;18089;47.428;15.006;2023-01-15T08:01:07;52.77;;;30.83;;
31464;SDS011;18089;47.428;15.006;2023-01-15T08:03:39;43.20;;;30.50;;
31464;SDS011;18089;47.428;15.006;2023-01-15T08:06:11;45.67;;;30.63;;
31464;SDS011;18089;47.428;15.006;2023-01-15T08:08:45;44.20;;;29.80;;
31464;SDS011;18089;47.428;15.006;2023-01-15T08:11:17;45.93;;;30.77;;
31464;SDS011;18089;47.428;15.006;2023-01-15T08:14:07;68.63;;;38.07;;
31464;SDS011;18089;47.428;15.006;2023-01-15T08:16:56;61.47;;;34.03;;
31464;SDS011;18089;47.428;15.006;2023-01-15T08:19:28;49.97;;;31.77;;
31464;SDS011;18089;47.428;15.006;2023-01-15T08:22:00;48.53;;;33.67;;
31464;SDS011;18089;47.428;15.006;2023-01-15T08:24:34;53.43;;;34.00;;
31464;SDS011;18089;47.428;15.006;2023-01-15T08:27:06;51.57;;;32.50;;
31464;SDS011;18089;47.428;15.006;2023-01-15T08:29:38;49.57;;;33.10;;
31464;SDS011;18089;47.428;15.006;2023-01-15T08:32:10;48.20;;;31.53;;
31464;SDS011;18089;47.428;15.006;2023-01-15T08:34:42;45.67;;;32.20;;
31464;SDS011;18089;47.428;15.006;2023-01-15T08:37:14;46.27;;;30.57;;
31464;SDS011;18089;47.428;15.006;2023-01-15T08:39:47;47.30;;;29.63;;
31464;SDS011;18089;47.428;15.006;2023-01-15T08:42:22;43.40;;;28.83;;
31464;SDS011;18089;47.428;15.006;2023-01-15T08:44:54;45.73;;;29.87;;
31464;SDS011;18089;47.428;15.006;2023-01-15T08:47:26;43.57;;;29.00;;
31464;SDS011;18089;47.428;15.006;2023-01-15T08:49:57;47.30;;;32.93;;
31464;SDS011;18089;47.428;15.006;2023-01-15T08:52:29;47.57;;;31.20;;
31464;SDS011;18089;47.428;15.006;2023-01-15T08:55:03;51.47;;;32.07;;
31464;SDS011;18089;47.428;15.006;2023-01-15T08:57:36;44.43;;;31.27;;
31464;SDS011;18089;47.428;15.006;2023-01-15T09:00:08;44.17;;;29.07;;
31464;SDS011;18089;47.428;15.006;2023-01-15T09:02:41;45.23;;;32.23;;
31464;SDS011;18089;47.428;15.006;2023-01-15T09:05:13;46.53;;;30.47;;
31464;SDS011;18089;47.428;15.006;2023-01-15T09:07:45;38.80;;;28.90;;
31464;SDS011;18089;47.428;15.006;2023-01-15T09:10:19;37.40;;;26.33;;
31464;SDS011;18089;47.428;15.006;2023-01-15T09:12:51;40.27;;;26.63;;
31464;SDS011;18089;47.428;15.006;2023-01-15T09:15:23;35.27;;;25.63;;
31464;SDS011;18089;47.428;15.006;2023-01-15T09:17:55;32.97;;;25.40;;
31464;SDS011;18089;47.428;15.006;2023-01-15T09:20:27;36.43;;;25.60;;
31464;SDS011;18089;47.428;15.006;2023-01-15T09:22:59;32.80;;;25.47;;
31464;SDS011;18089;47.428;15.006;2023-01-15T09:25:33;41.90;;;28.33;;
31464;SDS011;18089;47.428;15.006;2023-01-15T09:28:05;43.67;;;28.90;;
31464;SDS011;18089;47.428;15.006;2023-01-15T09:30:37;46.30;;;29.90;;
31464;SDS011;18089;47.428;15.006;2023-01-15T09:33:09;52.63;;;31.53;;
31464;SDS011;18089;47.428;15.006;2023-01-15T09:35:41;49.00;;;30.10;;
31464;SDS011;18089;47.428;15.006;2023-01-15T09:38:14;62.80;;;39.33;;
31464;SDS011;18089;47.428;15.006;2023-01-15T09:40:50;55.40;;;35.77;;
31464;SDS011;18089;47.428;15.006;2023-01-15T09:43:28;76.00;;;44.30;;
31464;SDS011;18089;47.428;15.006;2023-01-15T09:46:08;66.97;;;39.17;;
31464;SDS011;18089;47.428;15.006;2023-01-15T09:48:45;58.47;;;36.47;;
31464;SDS011;18089;47.428;15.006;2023-01-15T09:51:24;67.13;;;38.57;;
31464;SDS011;18089;47.428;15.006;2023-01-15T09:56:54;83.10;;;45.43;;
31464;SDS011;18089;47.428;15.006;2023-01-15T09:59:28;64.53;;;36.03;;
31464;SDS011;18089;47.428;15.006;2023-01-15T10:02:04;52.67;;;31.97;;
31464;SDS011;18089;47.428;15.006;2023-01-15T10:04:48;50.10;;;32.00;;
31464;SDS011;18089;47.428;15.006;2023-01-15T10:07:26;49.67;;;29.43;;
31464;SDS011;18089;47.428;15.006;2023-01-15T10:10:01;46.60;;;30.13;;
31464;SDS011;18089;47.428;15.006;2023-01-15T10:12:36;45.77;;;29.77;;
31464;SDS011;18089;47.428;15.006;2023-01-15T10:15:21;44.30;;;30.63;;
31464;SDS011;18089;47.428;15.006;2023-01-15T10:17:55;49.47;;;29.93;;
31464;SDS011;18089;47.428;15.006;2023-01-15T10:20:41;41.93;;;27.50;;
31464;SDS011;18089;47.428;15.006;2023-01-15T10:23:26;72.27;;;40.73;;
31464;SDS011;18089;47.428;15.006;2023-01-15T10:26:11;74.73;;;40.50;;
31464;SDS011;18089;47.428;15.006;2023-01-15T10:29:01;68.03;;;40.50;;
31464;SDS011;18089;47.428;15.006;2023-01-15T10:37:51;81.70;;;46.33;;
31464;SDS011;18089;47.428;15.006;2023-01-15T10:40:30;133.03;;;64.33;;
31464;SDS011;18089;47.428;15.006;2023-01-15T10:43:09;58.30;;;35.97;;
31464;SDS011;18089;47.428;15.006;2023-01-15T10:45:46;57.73;;;36.77;;
31464;SDS011;18089;47.428;15.006;2023-01-15T10:48:22;54.35;;;34.58;;
31464;SDS011;18089;47.428;15.006;2023-01-15T10:50:58;57.67;;;34.33;;
31464;SDS011;18089;47.428;15.006;2023-01-15T10:53:34;55.67;;;31.40;;
31464;SDS011;18089;47.428;15.006;2023-01-15T10:56:12;45.78;;;30.58;;
31464;SDS011;18089;47.428;15.006;2023-01-15T10:58:49;48.63;;;30.80;;
31464;SDS011;18089;47.428;15.006;2023-01-15T11:01:27;51.97;;;31.25;;
31464;SDS011;18089;47.428;15.006;2023-01-15T11:03:59;49.47;;;30.27;;
31464;SDS011;18089;47.428;15.006;2023-01-15T11:06:31;47.47;;;31.13;;
31464;SDS011;18089;47.428;15.006;2023-01-15T11:09:04;42.88;;;29.73;;
31464;SDS011;18089;47.428;15.006;2023-01-15T11:11:39;51.13;;;28.65;;
31464;SDS011;18089;47.428;15.006;2023-01-15T11:14:33;46.78;;;28.90;;
31464;SDS011;18089;47.428;15.006;2023-01-15T11:17:26;48.43;;;29.90;;
31464;SDS011;18089;47.428;15.006;2023-01-15T11:20:21;50.53;;;29.58;;
31464;SDS011;18089;47.428;15.006;2023-01-15T11:23:05;50.28;;;30.75;;
31464;SDS011;18089;47.428;15.006;2023-01-15T11:25:46;55.83;;;32.78;;
31464;SDS011;18089;47.428;15.006;2023-01-15T11:28:28;57.92;;;32.70;;
31464;SDS011;18089;47.428;15.006;2023-01-15T11:31:04;62.05;;;33.47;;
31464;SDS011;18089;47.428;15.006;2023-01-15T11:33:39;55.00;;;33.67;;
31464;SDS011;18089;47.428;15.006;2023-01-15T11:36:18;53.05;;;32.13;;
31464;SDS011;18089;47.428;15.006;2023-01-15T11:38:51;47.23;;;29.73;;
31464;SDS011;18089;47.428;15.006;2023-01-15T11:41:27;55.20;;;30.23;;
31464;SDS011;18089;47.428;15.006;2023-01-15T11:44:21;56.70;;;33.67;;
31464;SDS011;18089;47.428;15.006;2023-01-15T11:47:11;98.50;;;47.97;;
31464;SDS011;18089;47.428;15.006;2023-01-15T11:50:12;52.08;;;31.27;;
31464;SDS011;18089;47.428;15.006;2023-01-15T11:53:06;68.47;;;38.13;;
31464;SDS011;18089;47.428;15.006;2023-01-15T11:55:40;57.10;;;35.17;;
31464;SDS011;18089;47.428;15.006;2023-01-15T11:58:21;59.65;;;34.33;;
31464;SDS011;18089;47.428;15.006;2023-01-15T12:00:54;58.05;;;33.00;;
31464;SDS011;18089;47.428;15.006;2023-01-15T12:03:27;52.33;;;32.20;;
31464;SDS011;18089;47.428;15.006;2023-01-15T12:06:03;48.38;;;30.50;;
31464;SDS011;18089;47.428;15.006;2023-01-15T12:08:40;51.15;;;29.77;;
31464;SDS011;18089;47.428;15.006;2023-01-15T12:11:26;52.83;;;30.37;;
31464;SDS011;18089;47.428;15.006;2023-01-15T12:14:13;48.33;;;27.63;;
31464;SDS011;18089;47.428;15.006;2023-01-15T12:17:13;50.77;;;29.47;;
31464;SDS011;18089;47.428;15.006;2023-01-15T12:19:58;48.30;;;29.50;;
31464;SDS011;18089;47.428;15.006;2023-01-15T12:22:47;48.47;;;28.67;;
31464;SDS011;18089;47.428;15.006;2023-01-15T12:25:28;49.40;;;29.95;;
31464;SDS011;18089;47.428;15.006;2023-01-15T12:28:09;52.42;;;29.77;;
31464;SDS011;18089;47.428;15.006;2023-01-15T12:30:46;53.90;;;30.40;;
31464;SDS011;18089;47.428;15.006;2023-01-15T12:33:27;47.63;;;28.43;;
31464;SDS011;18089;47.428;15.006;2023-01-15T12:36:07;117.88;;;56.28;;
31464;SDS011;18089;47.428;15.006;2023-01-15T12:38:51;49.97;;;29.10;;
31464;SDS011;18089;47.428;15.006;2023-01-15T12:41:27;46.75;;;26.55;;
31464;SDS011;18089;47.428;15.006;2023-01-15T12:44:17;41.95;;;25.77;;
31464;SDS011;18089;47.428;15.006;2023-01-15T12:47:09;42.08;;;26.52;;
31464;SDS011;18089;47.428;15.006;2023-01-15T12:49:45;45.38;;;27.80;;
31464;SDS011;18089;47.428;15.006;2023-01-15T12:52:20;43.43;;;27.90;;
31464;SDS011;18089;47.428;15.006;2023-01-15T12:54:57;50.95;;;29.00;;
31464;SDS011;18089;47.428;15.006;2023-01-15T12:57:36;53.17;;;30.20;;
31464;SDS011;18089;47.428;15.006;2023-01-15T13:00:12;60.87;;;34.37;;
31464;SDS011;18089;47.428;15.006;2023-01-15T13:02:52;60.87;;;33.87;;
31464;SDS011;18089;47.428;15.006;2023-01-15T13:05:29;56.08;;;33.35;;
31464;SDS011;18089;47.428;15.006;2023-01-15T13:08:04;64.27;;;33.73;;
31464;SDS011;18089;47.428;15.006;2023-01-15T13:10:42;74.07;;;36.72;;
31464;SDS011;18089;47.428;15.006;2023-01-15T13:13:15;75.45;;;37.20;;
31464;SDS011;18089;47.428;15.006;2023-01-15T13:15:53;70.70;;;38.42;;
31464;SDS011;18089;47.428;15.006;2023-01-15T13:18:37;76.03;;;38.97;;
31464;SDS011;18089;47.428;15.006;2023-01-15T13:21:17;82.50;;;38.78;;
31464;SDS011;18089;47.428;15.006;2023-01-15T13:23:54;80.38;;;39.38;;
31464;SDS011;18089;47.428;15.006;2023-01-15T13:26:51;67.85;;;38.03;;
31464;SDS011;18089;47.428;15.006;2023-01-15T13:29:30;66.30;;;36.20;;
31464;SDS011;18089;47.428;15.006;2023-01-15T13:32:11;52.10;;;31.05;;
31464;SDS011;18089;47.428;15.006;2023-01-15T13:34:46;48.88;;;30.15;;
31464;SDS011;18089;47.428;15.006;2023-01-15T13:37:22;60.17;;;32.33;;
31464;SDS011;18089;47.428;15.006;2023-01-15T13:39:56;55.80;;;30.15;;
31464;SDS011;18089;47.428;15.006;2023-01-15T13:42:34;52.60;;;30.83;;
31464;SDS011;18089;47.428;15.006;2023-01-15T13:45:19;62.50;;;30.97;;
31464;SDS011;18089;47.428;15.006;2023-01-15T13:48:00;53.67;;;30.37;;
31464;SDS011;18089;47.428;15.006;2023-01-15T13:50:35;53.03;;;31.48;;
31464;SDS011;18089;47.428;15.006;2023-01-15T13:53:15;52.53;;;29.67;;
31464;SDS011;18089;47.428;15.006;2023-01-15T13:55:51;56.00;;;33.17;;
31464;SDS011;18089;47.428;15.006;2023-01-15T13:58:26;58.05;;;34.15;;
31464;SDS011;18089;47.428;15.006;2023-01-15T14:01:03;58.72;;;35.20;;
31464;SDS011;18089;47.428;15.006;2023-01-15T14:03:37;56.95;;;32.22;;
31464;SDS011;18089;47.428;15.006;2023-01-15T14:06:09;64.43;;;36.70;;
31464;SDS011;18089;47.428;15.006;2023-01-15T14:08:41;59.67;;;35.97;;
31464;SDS011;18089;47.428;15.006;2023-01-15T14:11:28;58.42;;;34.00;;
31464;SDS011;18089;47.428;15.006;2023-01-15T14:14:11;61.72;;;33.97;;
31464;SDS011;18089;47.428;15.006;2023-01-15T14:17:04;52.97;;;30.10;;
31464;SDS011;18089;47.428;15.006;2023-01-15T14:22:50;50.25;;;30.15;;
31464;SDS011;18089;47.428;15.006;2023-01-15T14:25:30;46.65;;;28.48;;
31464;SDS011;18089;47.428;15.006;2023-01-15T14:28:14;53.35;;;29.08;;
31464;SDS011;18089;47.428;15.006;2023-01-15T14:33:54;48.22;;;29.13;;
31464;SDS011;18089;47.428;15.006;2023-01-15T14:36:50;50.50;;;28.92;;
31464;SDS011;18089;47.428;15.006;2023-01-15T14:39:28;45.63;;;29.42;;
31464;SDS011;18089;47.428;15.006;2023-01-15T14:42:04;49.92;;;29.35;;
31464;SDS011;18089;47.428;15.006;2023-01-15T14:45:00;53.03;;;31.05;;
31464;SDS011;18089;47.428;15.006;2023-01-15T14:47:42;52.95;;;30.33;;
31464;SDS011;18089;47.428;15.006;2023-01-15T14:53:21;55.42;;;29.55;;
31464;SDS011;18089;47.428;15.006;2023-01-15T14:56:00;47.72;;;30.42;;
31464;SDS011;18089;47.428;15.006;2023-01-15T14:58:35;51.88;;;30.13;;
31464;SDS011;18089;47.428;15.006;2023-01-15T15:01:16;50.22;;;29.73;;
31464;SDS011;18089;47.428;15.006;2023-01-15T15:03:56;47.97;;;30.40;;
31464;SDS011;18089;47.428;15.006;2023-01-15T15:06:31;54.05;;;32.05;;
31464;SDS011;18089;47.428;15.006;2023-01-15T15:09:03;207.82;;;83.40;;
31464;SDS011;18089;47.428;15.006;2023-01-15T15:11:42;335.85;;;126.95;;
31464;SDS011;18089;47.428;15.006;2023-01-15T15:14:34;443.38;;;164.88;;
31464;SDS011;18089;47.428;15.006;2023-01-15T15:17:12;492.70;;;179.20;;
31464;SDS011;18089;47.428;15.006;2023-01-15T15:19:52;273.50;;;104.37;;